Central Point, OR

12:38 PM PST on December 19, 2014 (GMT -0800)
West of Fair Grounds | Change Station
CLOSE
Current Station
Personal Weather Station
Location: Canby, OR
Elevation: 158 ft
Nearby Weather Stations

Elev 158 ft 45.27 °N, 122.69 °W | Updated 5 seconds ago

Partly Cloudy
Partly Cloudy
52.0 °F
Feels Like 52.0 °F
N
4.0
Wind Variable Wind from South
Gusts 9.0 mph

Today
High -- | Low -- °F
--% Chance of Precip.
Yesterday
High -- | Low -- °F
Precip. -- in
7:45 AM 4:30 PM
Waning Crescent, 6% visible
Pressure 30.04 in
Visibility 10.0 miles
Clouds Few 1800 ft
Scattered Clouds 6500 ft
Dew Point 44 °F
Humidity 73%
Rainfall 0.14 in
Snow Depth Not available.
UV 0.0 out of 12
Pollen .50 out of 12
Air Quality Not available.
Flu Activity Not available.
METAR KUAO 191953Z AUTO 19016G21KT 10SM FEW018 SCT065 10/06 A3003 RMK AO2 SLP170 T01000061

More Conditions Fewer Conditions

Pressure 30.04 in
Visibility 10.0 miles
Clouds Few 1800 ft
Scattered Clouds 6500 ft
Dew Point 44 °F
Humidity 73%
Rainfall 0.14 in
Snow Depth Not available.
UV 0.0 out of 12
Pollen .50 out of 12
Air Quality Not available.
Flu Activity Not available.
METAR KUAO 191953Z AUTO 19016G21KT 10SM FEW018 SCT065 10/06 A3003 RMK AO2 SLP170 T01000061

More Conditions Fewer Conditions

10-Day Weather Forecast

Almanac

Astronomy

Dec. 19, 2014 Rise Set
Actual Time
Civil Twilight
Nautical Twilight
Astronomical Twilight
Moon
Length of Visible Light
Length of Day
Tomorrow will be .
, % of the Moon is Illuminated

Today's Extremes

State Highs State Lows

Community

WunderPhotos

Upload Photos

1,779,048 photos uploaded!

WunderBlogs® & News

Nearby

Air Quality

  Air Quality AQ Index Pollutant
Not available.

Snow Depth

Station Depth Elevation

Earthquake Activity

City Distance Mag. Time & Date
Minimum magnitude displayed is 2.5.

Coastal Water Temperatures

Place Temperature

Nearby Weather Stations